PILOTS ONLINE: 297    ATC ONLINE: 36

KNSE - Whiting Field Naval Air Station North Airport

Location

City Milton
Country  United States
Latitude 30° 43' 27" N
Longitude 87° 1' 18" W
Elevation 199 ft
Type Medium Airport

Runways

05/23 6000 ft / 200 ft
09/27 6000 ft / 200 ft
14/32 6000 ft / 200 ft
18/36 6000 ft / 200 ft

Weather

METAR
2014/07/31 08:56
KNSE 310856Z AUTO 35004KT 10SM CLR 17/14 A2999 RMK AO2 SLP142 T01720139 55005
TAF
2014/07/31 07:12
TAF KNSE 3107/0107 03005KT 9999 SCT160 SCT250 QNH2993INS 
      BECMG 3117/3119 28008KT SCT030 SCT130 BKN250 QNH2996INS 
      BECMG 3122/0100 23006KT SCT040 BKN120 BKN250 QNH2994INS 
      BECMG 0102/0104 VRB04KT FEW040 SCT150 SCT250 QNH2993INS AUTOMATED SENSOR METWATCH 3107 TIL 3111 T18/3110Z T32/3120Z FN00085

Outbound flights

Inbound flights